sensor_id;sensor_type;location;lat;lon;timestamp;P1;durP1;ratioP1;P2;durP2;ratioP2
32866;SDS011;19220;55.816;37.808;2023-03-20T00:30:47;16.88;;;11.02;;
32866;SDS011;19220;55.816;37.808;2023-03-20T00:33:13;16.73;;;10.02;;
32866;SDS011;19220;55.816;37.808;2023-03-20T00:35:39;23.00;;;11.30;;
32866;SDS011;19220;55.816;37.808;2023-03-20T00:38:04;17.55;;;10.57;;
32866;SDS011;19220;55.816;37.808;2023-03-20T00:40:33;18.80;;;10.70;;
32866;SDS011;19220;55.816;37.808;2023-03-20T00:43:00;18.10;;;10.27;;
32866;SDS011;19220;55.816;37.808;2023-03-20T00:45:28;18.73;;;10.88;;
32866;SDS011;19220;55.816;37.808;2023-03-20T00:47:54;17.52;;;10.95;;
32866;SDS011;19220;55.816;37.808;2023-03-20T00:50:25;17.65;;;10.80;;
32866;SDS011;19220;55.816;37.808;2023-03-20T00:52:51;17.20;;;9.43;;
32866;SDS011;19220;55.816;37.808;2023-03-20T00:55:18;16.98;;;10.93;;
32866;SDS011;19220;55.816;37.808;2023-03-20T00:57:46;17.60;;;10.10;;
32866;SDS011;19220;55.816;37.808;2023-03-20T01:02:47;18.80;;;11.00;;
32866;SDS011;19220;55.816;37.808;2023-03-20T01:05:13;18.67;;;10.82;;
32866;SDS011;19220;55.816;37.808;2023-03-20T01:07:38;20.00;;;10.70;;
32866;SDS011;19220;55.816;37.808;2023-03-20T01:10:04;17.92;;;11.80;;
32866;SDS011;19220;55.816;37.808;2023-03-20T01:12:30;17.80;;;11.20;;
32866;SDS011;19220;55.816;37.808;2023-03-20T01:14:56;20.55;;;11.63;;
32866;SDS011;19220;55.816;37.808;2023-03-20T01:17:23;17.35;;;11.00;;
32866;SDS011;19220;55.816;37.808;2023-03-20T01:19:48;20.35;;;11.68;;
32866;SDS011;19220;55.816;37.808;2023-03-20T01:22:14;22.65;;;11.57;;
32866;SDS011;19220;55.816;37.808;2023-03-20T01:24:42;17.30;;;11.40;;
32866;SDS011;19220;55.816;37.808;2023-03-20T01:27:11;22.08;;;12.32;;
32866;SDS011;19220;55.816;37.808;2023-03-20T01:29:38;17.13;;;11.32;;
32866;SDS011;19220;55.816;37.808;2023-03-20T01:32:04;19.30;;;11.90;;
32866;SDS011;19220;55.816;37.808;2023-03-20T01:34:33;19.23;;;11.73;;
32866;SDS011;19220;55.816;37.808;2023-03-20T01:36:58;20.42;;;11.52;;
32866;SDS011;19220;55.816;37.808;2023-03-20T01:39:27;21.42;;;11.38;;
32866;SDS011;19220;55.816;37.808;2023-03-20T01:41:55;19.05;;;10.98;;
32866;SDS011;19220;55.816;37.808;2023-03-20T01:44:22;19.80;;;11.82;;
32866;SDS011;19220;55.816;37.808;2023-03-20T01:46:53;18.75;;;12.35;;
32866;SDS011;19220;55.816;37.808;2023-03-20T01:51:47;18.50;;;11.73;;
32866;SDS011;19220;55.816;37.808;2023-03-20T01:57:10;21.52;;;12.80;;
32866;SDS011;19220;55.816;37.808;2023-03-20T01:59:38;18.70;;;12.10;;
32866;SDS011;19220;55.816;37.808;2023-03-20T02:02:06;21.20;;;13.23;;
32866;SDS011;19220;55.816;37.808;2023-03-20T02:04:33;22.60;;;13.80;;
32866;SDS011;19220;55.816;37.808;2023-03-20T02:07:06;20.27;;;13.00;;
32866;SDS011;19220;55.816;37.808;2023-03-20T02:09:39;21.58;;;13.00;;
32866;SDS011;19220;55.816;37.808;2023-03-20T02:12:09;19.23;;;12.90;;
32866;SDS011;19220;55.816;37.808;2023-03-20T02:14:36;19.27;;;12.75;;
32866;SDS011;19220;55.816;37.808;2023-03-20T02:17:40;20.80;;;11.90;;
32866;SDS011;19220;55.816;37.808;2023-03-20T02:49:09;78.10;;;48.33;;
32866;SDS011;19220;55.816;37.808;2023-03-20T02:54:19;21.27;;;13.00;;
32866;SDS011;19220;55.816;37.808;2023-03-20T03:02:02;23.33;;;12.10;;
32866;SDS011;19220;55.816;37.808;2023-03-20T03:04:29;23.98;;;13.40;;
32866;SDS011;19220;55.816;37.808;2023-03-20T03:06:58;22.58;;;15.27;;
32866;SDS011;19220;55.816;37.808;2023-03-20T03:09:31;23.55;;;12.93;;
32866;SDS011;19220;55.816;37.808;2023-03-20T03:12:00;20.10;;;13.07;;
32866;SDS011;19220;55.816;37.808;2023-03-20T03:16:53;21.08;;;13.32;;
32866;SDS011;19220;55.816;37.808;2023-03-20T03:19:21;22.90;;;13.20;;
32866;SDS011;19220;55.816;37.808;2023-03-20T03:21:47;24.90;;;13.20;;
32866;SDS011;19220;55.816;37.808;2023-03-20T03:24:28;23.55;;;16.02;;
32866;SDS011;19220;55.816;37.808;2023-03-20T03:26:55;19.17;;;13.15;;
32866;SDS011;19220;55.816;37.808;2023-03-20T03:29:21;27.45;;;16.33;;
32866;SDS011;19220;55.816;37.808;2023-03-20T03:31:48;28.10;;;15.65;;
32866;SDS011;19220;55.816;37.808;2023-03-20T03:34:15;21.50;;;14.02;;
32866;SDS011;19220;55.816;37.808;2023-03-20T03:46:52;22.65;;;14.38;;
32866;SDS011;19220;55.816;37.808;2023-03-20T03:49:22;23.80;;;13.70;;
32866;SDS011;19220;55.816;37.808;2023-03-20T03:51:49;22.55;;;14.20;;
32866;SDS011;19220;55.816;37.808;2023-03-20T03:54:26;24.13;;;13.45;;
32866;SDS011;19220;55.816;37.808;2023-03-20T03:57:11;22.60;;;13.80;;
32866;SDS011;19220;55.816;37.808;2023-03-20T03:59:39;28.08;;;15.20;;
32866;SDS011;19220;55.816;37.808;2023-03-20T04:02:07;24.48;;;15.45;;
32866;SDS011;19220;55.816;37.808;2023-03-20T04:04:34;25.77;;;15.43;;
32866;SDS011;19220;55.816;37.808;2023-03-20T04:07:01;25.75;;;14.38;;
32866;SDS011;19220;55.816;37.808;2023-03-20T04:09:26;25.98;;;15.68;;
32866;SDS011;19220;55.816;37.808;2023-03-20T04:11:53;27.48;;;15.30;;
32866;SDS011;19220;55.816;37.808;2023-03-20T04:14:18;24.58;;;14.85;;
32866;SDS011;19220;55.816;37.808;2023-03-20T04:16:44;25.92;;;13.13;;
32866;SDS011;19220;55.816;37.808;2023-03-20T04:19:10;23.83;;;14.85;;
32866;SDS011;19220;55.816;37.808;2023-03-20T04:21:36;19.35;;;13.25;;
32866;SDS011;19220;55.816;37.808;2023-03-20T04:24:02;22.35;;;12.95;;
32866;SDS011;19220;55.816;37.808;2023-03-20T04:26:27;25.30;;;14.73;;
32866;SDS011;19220;55.816;37.808;2023-03-20T04:28:54;23.20;;;14.57;;
32866;SDS011;19220;55.816;37.808;2023-03-20T04:31:55;24.30;;;14.30;;
32866;SDS011;19220;55.816;37.808;2023-03-20T04:34:32;24.23;;;14.13;;
32866;SDS011;19220;55.816;37.808;2023-03-20T04:37:23;21.02;;;10.93;;
32866;SDS011;19220;55.816;37.808;2023-03-20T04:40:02;23.70;;;14.15;;
32866;SDS011;19220;55.816;37.808;2023-03-20T04:42:28;22.08;;;12.07;;
32866;SDS011;19220;55.816;37.808;2023-03-20T04:44:59;22.73;;;14.07;;
32866;SDS011;19220;55.816;37.808;2023-03-20T04:47:25;25.38;;;15.35;;
32866;SDS011;19220;55.816;37.808;2023-03-20T04:49:51;20.73;;;12.40;;
32866;SDS011;19220;55.816;37.808;2023-03-20T04:52:17;26.77;;;13.02;;
32866;SDS011;19220;55.816;37.808;2023-03-20T04:54:44;26.30;;;14.93;;
32866;SDS011;19220;55.816;37.808;2023-03-20T04:57:10;21.45;;;13.73;;
32866;SDS011;19220;55.816;37.808;2023-03-20T04:59:37;23.20;;;14.40;;
32866;SDS011;19220;55.816;37.808;2023-03-20T05:02:02;25.40;;;16.45;;
32866;SDS011;19220;55.816;37.808;2023-03-20T05:04:28;20.65;;;10.57;;
32866;SDS011;19220;55.816;37.808;2023-03-20T05:06:54;15.75;;;9.50;;
32866;SDS011;19220;55.816;37.808;2023-03-20T05:09:23;20.27;;;10.13;;
32866;SDS011;19220;55.816;37.808;2023-03-20T05:11:50;16.13;;;9.70;;
32866;SDS011;19220;55.816;37.808;2023-03-20T05:14:54;16.35;;;9.65;;
32866;SDS011;19220;55.816;37.808;2023-03-20T05:20:39;12.65;;;8.07;;
32866;SDS011;19220;55.816;37.808;2023-03-20T05:23:17;12.80;;;8.00;;
32866;SDS011;19220;55.816;37.808;2023-03-20T05:25:49;12.07;;;6.78;;
32866;SDS011;19220;55.816;37.808;2023-03-20T05:28:30;12.32;;;7.50;;
32866;SDS011;19220;55.816;37.808;2023-03-20T05:31:07;13.40;;;6.70;;
32866;SDS011;19220;55.816;37.808;2023-03-20T05:33:52;9.80;;;6.43;;
32866;SDS011;19220;55.816;37.808;2023-03-20T05:36:27;14.68;;;7.53;;
32866;SDS011;19220;55.816;37.808;2023-03-20T05:39:11;11.57;;;6.93;;
32866;SDS011;19220;55.816;37.808;2023-03-20T05:42:00;13.18;;;7.32;;
32866;SDS011;19220;55.816;37.808;2023-03-20T05:44:46;13.32;;;6.55;;
32866;SDS011;19220;55.816;37.808;2023-03-20T05:47:30;11.45;;;6.85;;
32866;SDS011;19220;55.816;37.808;2023-03-20T05:50:04;13.82;;;7.32;;
32866;SDS011;19220;55.816;37.808;2023-03-20T05:52:46;10.63;;;6.57;;
32866;SDS011;19220;55.816;37.808;2023-03-20T05:55:31;8.95;;;6.57;;
32866;SDS011;19220;55.816;37.808;2023-03-20T05:58:10;10.80;;;6.80;;
32866;SDS011;19220;55.816;37.808;2023-03-20T06:00:56;9.02;;;6.72;;
32866;SDS011;19220;55.816;37.808;2023-03-20T06:03:56;8.05;;;6.55;;
32866;SDS011;19220;55.816;37.808;2023-03-20T06:06:40;9.40;;;5.72;;
32866;SDS011;19220;55.816;37.808;2023-03-20T06:09:06;8.63;;;5.50;;
32866;SDS011;19220;55.816;37.808;2023-03-20T06:11:32;9.70;;;6.68;;
32866;SDS011;19220;55.816;37.808;2023-03-20T06:13:58;10.15;;;5.72;;
32866;SDS011;19220;55.816;37.808;2023-03-20T06:16:33;8.27;;;5.93;;
32866;SDS011;19220;55.816;37.808;2023-03-20T06:18:58;9.35;;;6.22;;
32866;SDS011;19220;55.816;37.808;2023-03-20T06:21:24;8.90;;;6.07;;
32866;SDS011;19220;55.816;37.808;2023-03-20T06:23:51;9.68;;;5.47;;
32866;SDS011;19220;55.816;37.808;2023-03-20T06:26:20;8.95;;;5.43;;
32866;SDS011;19220;55.816;37.808;2023-03-20T06:28:55;12.38;;;5.70;;
32866;SDS011;19220;55.816;37.808;2023-03-20T06:31:21;10.73;;;5.93;;
32866;SDS011;19220;55.816;37.808;2023-03-20T06:33:46;11.02;;;5.75;;
32866;SDS011;19220;55.816;37.808;2023-03-20T06:36:12;10.55;;;5.32;;
32866;SDS011;19220;55.816;37.808;2023-03-20T06:38:38;14.57;;;6.15;;
32866;SDS011;19220;55.816;37.808;2023-03-20T06:41:09;8.25;;;5.60;;
32866;SDS011;19220;55.816;37.808;2023-03-20T06:43:34;9.90;;;5.75;;
32866;SDS011;19220;55.816;37.808;2023-03-20T06:46:01;11.90;;;6.13;;
32866;SDS011;19220;55.816;37.808;2023-03-20T06:48:29;11.05;;;6.18;;
32866;SDS011;19220;55.816;37.808;2023-03-20T06:50:55;16.77;;;6.30;;
32866;SDS011;19220;55.816;37.808;2023-03-20T06:53:25;12.13;;;5.95;;
32866;SDS011;19220;55.816;37.808;2023-03-20T06:56:02;11.40;;;5.65;;
32866;SDS011;19220;55.816;37.808;2023-03-20T07:01:14;11.15;;;6.22;;
32866;SDS011;19220;55.816;37.808;2023-03-20T07:03:42;12.85;;;6.68;;
32866;SDS011;19220;55.816;37.808;2023-03-20T07:06:08;10.57;;;6.95;;
32866;SDS011;19220;55.816;37.808;2023-03-20T07:08:36;14.88;;;6.50;;
32866;SDS011;19220;55.816;37.808;2023-03-20T07:11:02;9.27;;;6.18;;
32866;SDS011;19220;55.816;37.808;2023-03-20T07:13:29;9.98;;;6.22;;
32866;SDS011;19220;55.816;37.808;2023-03-20T07:15:55;13.65;;;6.07;;
32866;SDS011;19220;55.816;37.808;2023-03-20T07:18:23;11.98;;;6.22;;
32866;SDS011;19220;55.816;37.808;2023-03-20T07:20:51;9.75;;;5.82;;
32866;SDS011;19220;55.816;37.808;2023-03-20T07:23:17;13.30;;;5.43;;
32866;SDS011;19220;55.816;37.808;2023-03-20T07:25:42;13.13;;;4.85;;
32866;SDS011;19220;55.816;37.808;2023-03-20T07:28:14;8.50;;;5.00;;
32866;SDS011;19220;55.816;37.808;2023-03-20T07:30:42;4.75;;;3.33;;
32866;SDS011;19220;55.816;37.808;2023-03-20T07:33:09;7.65;;;4.32;;
32866;SDS011;19220;55.816;37.808;2023-03-20T07:35:34;10.38;;;5.10;;
32866;SDS011;19220;55.816;37.808;2023-03-20T07:38:00;6.90;;;4.28;;
32866;SDS011;19220;55.816;37.808;2023-03-20T07:40:26;7.13;;;4.40;;
32866;SDS011;19220;55.816;37.808;2023-03-20T07:42:59;11.82;;;4.75;;
32866;SDS011;19220;55.816;37.808;2023-03-20T07:45:57;9.88;;;4.68;;
32866;SDS011;19220;55.816;37.808;2023-03-20T07:48:25;8.25;;;5.15;;
32866;SDS011;19220;55.816;37.808;2023-03-20T07:50:51;7.40;;;4.63;;
32866;SDS011;19220;55.816;37.808;2023-03-20T07:53:16;10.52;;;5.15;;
32866;SDS011;19220;55.816;37.808;2023-03-20T07:55:42;5.53;;;4.55;;
32866;SDS011;19220;55.816;37.808;2023-03-20T07:58:09;8.63;;;4.53;;
32866;SDS011;19220;55.816;37.808;2023-03-20T08:00:34;6.47;;;4.38;;
32866;SDS011;19220;55.816;37.808;2023-03-20T08:03:00;7.97;;;3.72;;
32866;SDS011;19220;55.816;37.808;2023-03-20T08:05:26;6.35;;;3.72;;
32866;SDS011;19220;55.816;37.808;2023-03-20T08:07:51;5.30;;;3.58;;
32866;SDS011;19220;55.816;37.808;2023-03-20T08:10:17;5.57;;;3.60;;
32866;SDS011;19220;55.816;37.808;2023-03-20T08:12:42;7.72;;;3.40;;
32866;SDS011;19220;55.816;37.808;2023-03-20T08:15:08;4.82;;;3.53;;
32866;SDS011;19220;55.816;37.808;2023-03-20T08:17:33;6.85;;;3.40;;
32866;SDS011;19220;55.816;37.808;2023-03-20T08:19:59;7.28;;;3.25;;
32866;SDS011;19220;55.816;37.808;2023-03-20T08:22:24;8.70;;;3.58;;
32866;SDS011;19220;55.816;37.808;2023-03-20T08:24:50;13.50;;;3.65;;
32866;SDS011;19220;55.816;37.808;2023-03-20T08:27:16;7.80;;;4.20;;
32866;SDS011;19220;55.816;37.808;2023-03-20T08:29:41;7.50;;;3.95;;
32866;SDS011;19220;55.816;37.808;2023-03-20T08:32:07;10.73;;;4.85;;
32866;SDS011;19220;55.816;37.808;2023-03-20T08:34:32;9.15;;;4.28;;
32866;SDS011;19220;55.816;37.808;2023-03-20T08:36:58;13.55;;;4.50;;
32866;SDS011;19220;55.816;37.808;2023-03-20T08:39:23;7.55;;;4.38;;
32866;SDS011;19220;55.816;37.808;2023-03-20T08:41:49;13.20;;;4.28;;
32866;SDS011;19220;55.816;37.808;2023-03-20T08:44:14;6.25;;;4.28;;
32866;SDS011;19220;55.816;37.808;2023-03-20T08:46:40;8.85;;;3.85;;
32866;SDS011;19220;55.816;37.808;2023-03-20T08:49:07;4.85;;;4.03;;
32866;SDS011;19220;55.816;37.808;2023-03-20T08:51:33;8.90;;;4.20;;
32866;SDS011;19220;55.816;37.808;2023-03-20T08:53:59;12.90;;;4.30;;
32866;SDS011;19220;55.816;37.808;2023-03-20T08:56:24;5.90;;;3.90;;
32866;SDS011;19220;55.816;37.808;2023-03-20T08:58:50;8.18;;;4.22;;
32866;SDS011;19220;55.816;37.808;2023-03-20T09:01:17;7.88;;;3.97;;
32866;SDS011;19220;55.816;37.808;2023-03-20T09:03:43;6.30;;;4.53;;
32866;SDS011;19220;55.816;37.808;2023-03-20T09:06:09;9.45;;;4.22;;
32866;SDS011;19220;55.816;37.808;2023-03-20T09:08:35;6.70;;;4.07;;
32866;SDS011;19220;55.816;37.808;2023-03-20T09:11:01;6.68;;;3.67;;
32866;SDS011;19220;55.816;37.808;2023-03-20T09:13:26;7.63;;;3.50;;
32866;SDS011;19220;55.816;37.808;2023-03-20T09:15:52;8.52;;;3.90;;
32866;SDS011;19220;55.816;37.808;2023-03-20T09:18:18;8.77;;;3.78;;
32866;SDS011;19220;55.816;37.808;2023-03-20T09:20:44;7.45;;;3.83;;
32866;SDS011;19220;55.816;37.808;2023-03-20T09:23:09;8.73;;;3.33;;
32866;SDS011;19220;55.816;37.808;2023-03-20T09:25:35;6.03;;;3.88;;
32866;SDS011;19220;55.816;37.808;2023-03-20T09:28:00;8.00;;;4.50;;
32866;SDS011;19220;55.816;37.808;2023-03-20T09:30:26;7.70;;;3.90;;
32866;SDS011;19220;55.816;37.808;2023-03-20T09:32:51;8.10;;;4.40;;
32866;SDS011;19220;55.816;37.808;2023-03-20T09:35:17;7.00;;;4.45;;
32866;SDS011;19220;55.816;37.808;2023-03-20T09:37:43;9.27;;;4.40;;
32866;SDS011;19220;55.816;37.808;2023-03-20T09:40:19;9.38;;;5.05;;
32866;SDS011;19220;55.816;37.808;2023-03-20T09:42:57;11.57;;;5.18;;
32866;SDS011;19220;55.816;37.808;2023-03-20T09:53:22;12.10;;;5.82;;
32866;SDS011;19220;55.816;37.808;2023-03-20T09:55:49;9.27;;;5.68;;
32866;SDS011;19220;55.816;37.808;2023-03-20T10:01:04;13.50;;;6.15;;
32866;SDS011;19220;55.816;37.808;2023-03-20T10:05:57;13.10;;;5.55;;
32866;SDS011;19220;55.816;37.808;2023-03-20T10:08:28;14.60;;;5.55;;
32866;SDS011;19220;55.816;37.808;2023-03-20T10:18:26;10.00;;;6.00;;
32866;SDS011;19220;55.816;37.808;2023-03-20T10:20:59;12.70;;;6.65;;
32866;SDS011;19220;55.816;37.808;2023-03-20T10:24:02;10.70;;;6.85;;
32866;SDS011;19220;55.816;37.808;2023-03-20T10:26:20;11.45;;;5.55;;
32866;SDS011;19220;55.816;37.808;2023-03-20T10:28:48;12.15;;;5.95;;
32866;SDS011;19220;55.816;37.808;2023-03-20T10:31:33;8.45;;;5.68;;
32866;SDS011;19220;55.816;37.808;2023-03-20T10:41:57;5.15;;;3.95;;
32866;SDS011;19220;55.816;37.808;2023-03-20T10:44:34;5.70;;;3.92;;
32866;SDS011;19220;55.816;37.808;2023-03-20T10:47:02;5.18;;;4.10;;
32866;SDS011;19220;55.816;37.808;2023-03-20T10:52:03;4.55;;;3.53;;
32866;SDS011;19220;55.816;37.808;2023-03-20T10:54:32;5.38;;;3.55;;
32866;SDS011;19220;55.816;37.808;2023-03-20T10:56:59;4.57;;;3.08;;
32866;SDS011;19220;55.816;37.808;2023-03-20T11:01:50;9.00;;;3.40;;
32866;SDS011;19220;55.816;37.808;2023-03-20T11:04:16;6.38;;;3.40;;
32866;SDS011;19220;55.816;37.808;2023-03-20T11:06:45;5.60;;;3.38;;
32866;SDS011;19220;55.816;37.808;2023-03-20T11:09:19;5.13;;;3.50;;
32866;SDS011;19220;55.816;37.808;2023-03-20T11:11:45;8.82;;;3.85;;
32866;SDS011;19220;55.816;37.808;2023-03-20T11:14:16;5.38;;;3.40;;
32866;SDS011;19220;55.816;37.808;2023-03-20T11:16:42;5.88;;;3.38;;
32866;SDS011;19220;55.816;37.808;2023-03-20T11:19:11;7.15;;;4.15;;
32866;SDS011;19220;55.816;37.808;2023-03-20T11:27:16;7.68;;;3.95;;
32866;SDS011;19220;55.816;37.808;2023-03-20T11:29:42;8.80;;;3.63;;
32866;SDS011;19220;55.816;37.808;2023-03-20T11:34:39;8.07;;;4.18;;
32866;SDS011;19220;55.816;37.808;2023-03-20T11:37:24;11.23;;;4.55;;
32866;SDS011;19220;55.816;37.808;2023-03-20T11:42:24;6.25;;;4.05;;
32866;SDS011;19220;55.816;37.808;2023-03-20T11:44:57;6.72;;;4.35;;
32866;SDS011;19220;55.816;37.808;2023-03-20T11:47:24;9.27;;;4.32;;
32866;SDS011;19220;55.816;37.808;2023-03-20T11:49:54;7.65;;;4.38;;
32866;SDS011;19220;55.816;37.808;2023-03-20T11:52:22;10.57;;;4.50;;
32866;SDS011;19220;55.816;37.808;2023-03-20T11:54:49;9.52;;;4.90;;
32866;SDS011;19220;55.816;37.808;2023-03-20T12:00:01;10.52;;;4.90;;
32866;SDS011;19220;55.816;37.808;2023-03-20T12:02:28;8.63;;;5.15;;
32866;SDS011;19220;55.816;37.808;2023-03-20T12:04:53;6.05;;;4.68;;
32866;SDS011;19220;55.816;37.808;2023-03-20T12:07:32;10.43;;;5.10;;
32866;SDS011;19220;55.816;37.808;2023-03-20T12:10:03;7.50;;;5.00;;
32866;SDS011;19220;55.816;37.808;2023-03-20T12:12:37;14.40;;;5.25;;
32866;SDS011;19220;55.816;37.808;2023-03-20T12:22:55;8.43;;;4.47;;
32866;SDS011;19220;55.816;37.808;2023-03-20T12:25:25;12.63;;;4.85;;
32866;SDS011;19220;55.816;37.808;2023-03-20T12:27:54;10.55;;;4.35;;
32866;SDS011;19220;55.816;37.808;2023-03-20T12:33:06;9.82;;;4.53;;
32866;SDS011;19220;55.816;37.808;2023-03-20T12:35:36;9.88;;;4.95;;
32866;SDS011;19220;55.816;37.808;2023-03-20T12:38:04;6.47;;;4.55;;
32866;SDS011;19220;55.816;37.808;2023-03-20T12:40:37;6.85;;;4.25;;
32866;SDS011;19220;55.816;37.808;2023-03-20T12:43:04;7.10;;;4.25;;
32866;SDS011;19220;55.816;37.808;2023-03-20T12:45:37;8.80;;;4.15;;
32866;SDS011;19220;55.816;37.808;2023-03-20T12:48:16;6.05;;;4.30;;
32866;SDS011;19220;55.816;37.808;2023-03-20T13:01:16;9.43;;;4.70;;
32866;SDS011;19220;55.816;37.808;2023-03-20T13:19:25;10.00;;;4.68;;
32866;SDS011;19220;55.816;37.808;2023-03-20T13:21:57;5.82;;;4.35;;
32866;SDS011;19220;55.816;37.808;2023-03-20T13:25:00;8.23;;;4.50;;
32866;SDS011;19220;55.816;37.808;2023-03-20T13:27:51;9.00;;;5.38;;
32866;SDS011;19220;55.816;37.808;2023-03-20T13:30:15;8.32;;;4.03;;
32866;SDS011;19220;55.816;37.808;2023-03-20T13:40:39;12.32;;;4.65;;
32866;SDS011;19220;55.816;37.808;2023-03-20T13:45:37;7.57;;;4.40;;
32866;SDS011;19220;55.816;37.808;2023-03-20T13:48:08;9.30;;;4.50;;
32866;SDS011;19220;55.816;37.808;2023-03-20T13:50:39;9.32;;;4.25;;
32866;SDS011;19220;55.816;37.808;2023-03-20T14:03:29;7.38;;;4.20;;
32866;SDS011;19220;55.816;37.808;2023-03-20T14:05:55;6.18;;;4.70;;
32866;SDS011;19220;55.816;37.808;2023-03-20T14:13:35;8.00;;;4.95;;
32866;SDS011;19220;55.816;37.808;2023-03-20T14:16:06;9.30;;;4.80;;
32866;SDS011;19220;55.816;37.808;2023-03-20T14:18:32;7.45;;;4.28;;
32866;SDS011;19220;55.816;37.808;2023-03-20T14:20:59;10.30;;;4.05;;
32866;SDS011;19220;55.816;37.808;2023-03-20T14:23:35;14.00;;;4.50;;
32866;SDS011;19220;55.816;37.808;2023-03-20T14:26:04;12.20;;;4.93;;
32866;SDS011;19220;55.816;37.808;2023-03-20T14:28:42;7.05;;;4.20;;
32866;SDS011;19220;55.816;37.808;2023-03-20T14:31:21;8.68;;;4.35;;
32866;SDS011;19220;55.816;37.808;2023-03-20T14:33:52;9.25;;;4.57;;
32866;SDS011;19220;55.816;37.808;2023-03-20T14:36:25;7.40;;;4.20;;
32866;SDS011;19220;55.816;37.808;2023-03-20T14:38:52;8.65;;;4.30;;
32866;SDS011;19220;55.816;37.808;2023-03-20T14:48:54;10.05;;;5.00;;
32866;SDS011;19220;55.816;37.808;2023-03-20T14:53:55;7.22;;;4.63;;
32866;SDS011;19220;55.816;37.808;2023-03-20T14:56:26;11.77;;;4.90;;
32866;SDS011;19220;55.816;37.808;2023-03-20T14:59:05;10.05;;;4.90;;
32866;SDS011;19220;55.816;37.808;2023-03-20T15:06:34;10.60;;;5.07;;
32866;SDS011;19220;55.816;37.808;2023-03-20T15:09:07;8.98;;;5.63;;
32866;SDS011;19220;55.816;37.808;2023-03-20T15:11:34;10.00;;;6.03;;
32866;SDS011;19220;55.816;37.808;2023-03-20T15:14:00;7.55;;;5.72;;
32866;SDS011;19220;55.816;37.808;2023-03-20T15:16:28;8.55;;;5.75;;
32866;SDS011;19220;55.816;37.808;2023-03-20T15:18:54;8.75;;;5.43;;
32866;SDS011;19220;55.816;37.808;2023-03-20T15:21:20;12.07;;;5.78;;
32866;SDS011;19220;55.816;37.808;2023-03-20T15:23:47;7.88;;;6.05;;
32866;SDS011;19220;55.816;37.808;2023-03-20T15:26:13;12.52;;;5.70;;
32866;SDS011;19220;55.816;37.808;2023-03-20T15:28:39;14.68;;;5.68;;
32866;SDS011;19220;55.816;37.808;2023-03-20T15:31:12;11.18;;;5.95;;
32866;SDS011;19220;55.816;37.808;2023-03-20T15:33:43;10.07;;;5.97;;
32866;SDS011;19220;55.816;37.808;2023-03-20T15:36:17;9.27;;;5.38;;
32866;SDS011;19220;55.816;37.808;2023-03-20T15:38:44;13.23;;;5.95;;
32866;SDS011;19220;55.816;37.808;2023-03-20T15:41:29;7.78;;;5.53;;
32866;SDS011;19220;55.816;37.808;2023-03-20T15:44:33;7.55;;;5.63;;
32866;SDS011;19220;55.816;37.808;2023-03-20T15:46:55;9.70;;;6.75;;
32866;SDS011;19220;55.816;37.808;2023-03-20T15:51:46;10.35;;;5.97;;
32866;SDS011;19220;55.816;37.808;2023-03-20T15:54:13;8.75;;;5.78;;
32866;SDS011;19220;55.816;37.808;2023-03-20T15:56:41;10.52;;;5.32;;
32866;SDS011;19220;55.816;37.808;2023-03-20T15:59:13;10.32;;;4.80;;
32866;SDS011;19220;55.816;37.808;2023-03-20T16:01:40;10.20;;;5.30;;
32866;SDS011;19220;55.816;37.808;2023-03-20T16:04:06;11.05;;;6.03;;
32866;SDS011;19220;55.816;37.808;2023-03-20T16:06:33;11.68;;;5.18;;
32866;SDS011;19220;55.816;37.808;2023-03-20T16:09:00;6.63;;;5.03;;
32866;SDS011;19220;55.816;37.808;2023-03-20T16:11:34;10.38;;;5.18;;
32866;SDS011;19220;55.816;37.808;2023-03-20T16:13:59;7.40;;;5.13;;
32866;SDS011;19220;55.816;37.808;2023-03-20T16:16:25;11.15;;;4.65;;
32866;SDS011;19220;55.816;37.808;2023-03-20T16:18:50;11.52;;;4.80;;
32866;SDS011;19220;55.816;37.808;2023-03-20T16:21:35;8.27;;;5.18;;
32866;SDS011;19220;55.816;37.808;2023-03-20T16:24:07;8.82;;;5.03;;
32866;SDS011;19220;55.816;37.808;2023-03-20T16:26:35;13.45;;;6.13;;
32866;SDS011;19220;55.816;37.808;2023-03-20T16:29:01;11.90;;;5.43;;
32866;SDS011;19220;55.816;37.808;2023-03-20T16:31:27;13.32;;;5.22;;
32866;SDS011;19220;55.816;37.808;2023-03-20T16:33:57;8.40;;;5.10;;
32866;SDS011;19220;55.816;37.808;2023-03-20T16:36:34;9.82;;;4.80;;
32866;SDS011;19220;55.816;37.808;2023-03-20T16:39:17;12.75;;;4.97;;
32866;SDS011;19220;55.816;37.808;2023-03-20T16:41:43;14.55;;;5.22;;
32866;SDS011;19220;55.816;37.808;2023-03-20T16:44:13;11.43;;;5.20;;
32866;SDS011;19220;55.816;37.808;2023-03-20T16:46:59;8.63;;;4.80;;
32866;SDS011;19220;55.816;37.808;2023-03-20T16:49:46;11.50;;;5.07;;
32866;SDS011;19220;55.816;37.808;2023-03-20T16:52:13;8.27;;;4.80;;
32866;SDS011;19220;55.816;37.808;2023-03-20T16:54:39;8.20;;;4.22;;
32866;SDS011;19220;55.816;37.808;2023-03-20T16:57:08;8.85;;;4.90;;
32866;SDS011;19220;55.816;37.808;2023-03-20T16:59:37;8.10;;;4.80;;
32866;SDS011;19220;55.816;37.808;2023-03-20T17:02:07;11.07;;;4.68;;
32866;SDS011;19220;55.816;37.808;2023-03-20T17:04:36;10.23;;;5.13;;
32866;SDS011;19220;55.816;37.808;2023-03-20T17:09:31;9.02;;;4.60;;
32866;SDS011;19220;55.816;37.808;2023-03-20T17:11:59;8.18;;;4.90;;
32866;SDS011;19220;55.816;37.808;2023-03-20T17:14:26;6.45;;;4.43;;
32866;SDS011;19220;55.816;37.808;2023-03-20T17:16:52;13.43;;;5.10;;
32866;SDS011;19220;55.816;37.808;2023-03-20T17:19:19;9.52;;;6.07;;
32866;SDS011;19220;55.816;37.808;2023-03-20T17:21:45;8.02;;;5.05;;
32866;SDS011;19220;55.816;37.808;2023-03-20T17:24:11;10.88;;;5.38;;
32866;SDS011;19220;55.816;37.808;2023-03-20T17:26:37;10.55;;;5.57;;
32866;SDS011;19220;55.816;37.808;2023-03-20T17:29:03;12.93;;;6.38;;
32866;SDS011;19220;55.816;37.808;2023-03-20T17:31:29;14.82;;;5.35;;
32866;SDS011;19220;55.816;37.808;2023-03-20T17:33:56;11.50;;;5.57;;
32866;SDS011;19220;55.816;37.808;2023-03-20T17:36:23;11.45;;;4.97;;
32866;SDS011;19220;55.816;37.808;2023-03-20T17:38:49;8.90;;;5.05;;
32866;SDS011;19220;55.816;37.808;2023-03-20T17:41:16;8.98;;;4.55;;
32866;SDS011;19220;55.816;37.808;2023-03-20T17:43:42;9.52;;;4.65;;
32866;SDS011;19220;55.816;37.808;2023-03-20T17:46:21;8.13;;;5.07;;
32866;SDS011;19220;55.816;37.808;2023-03-20T17:48:48;9.55;;;5.18;;
32866;SDS011;19220;55.816;37.808;2023-03-20T17:51:14;9.73;;;5.07;;
32866;SDS011;19220;55.816;37.808;2023-03-20T17:53:40;9.32;;;5.60;;
32866;SDS011;19220;55.816;37.808;2023-03-20T17:56:12;8.45;;;5.32;;
32866;SDS011;19220;55.816;37.808;2023-03-20T17:58:38;7.93;;;4.63;;
32866;SDS011;19220;55.816;37.808;2023-03-20T18:01:04;10.80;;;4.85;;
32866;SDS011;19220;55.816;37.808;2023-03-20T18:03:31;9.65;;;4.97;;
32866;SDS011;19220;55.816;37.808;2023-03-20T18:05:59;9.50;;;4.90;;
32866;SDS011;19220;55.816;37.808;2023-03-20T18:08:25;10.05;;;4.88;;
32866;SDS011;19220;55.816;37.808;2023-03-20T18:10:51;11.80;;;5.32;;
32866;SDS011;19220;55.816;37.808;2023-03-20T18:13:17;14.88;;;5.47;;
32866;SDS011;19220;55.816;37.808;2023-03-20T18:15:48;9.15;;;4.90;;
32866;SDS011;19220;55.816;37.808;2023-03-20T18:18:16;9.93;;;5.88;;
32866;SDS011;19220;55.816;37.808;2023-03-20T18:20:41;7.68;;;5.05;;